Flight Track Log - Related Links

Times and Time Zones

All times are in EDT time to prevent confusion due to time zone crossing. See the TCF3559 flight status page for this flight to view local times or setup timezone preferences in your user account.

Time Position Orientation Groundspeed Altitude Reporting Facility
EDT Latitude Longitude Course Direction KTS MPH feet Rate Location/Type
Wed 02:40:39 PM 29.9794 -95.3536 27° Northeast 144 166 600  Level Houston Center
Wed 02:42:04 PM 30.0458 -95.3414 North 175 201 3,100 1,333 Climbing Houston Center
Wed 02:43:12 PM 30.1211 -95.3194 14° North 266 306 4,000 1,403 Climbing Houston Center
Wed 02:44:00 PM 30.5623 -95.0807 30° Northeast  Level FlightAware Approximate
Wed 02:44:08 PM 30.1839 -95.2939 19° North 264 304 6,000  Level Houston Center
Wed 02:45:00 PM 30.6680 -95.0047 30° Northeast  Level FlightAware Approximate
Wed 02:45:10 PM 30.2575 -95.2564 24° Northeast 286 329 8,400  Level Houston Center
Wed 02:46:00 PM 30.7789 -94.9427 27° Northeast  Level FlightAware Approximate
Wed 02:46:13 PM 30.3353 -95.2175 23° Northeast 302 348 10,500  Level Houston Center
Wed 02:47:15 PM 30.4322 -95.1714 22° Northeast 338 389 13,200 2,516 Climbing Houston Center
Wed 02:48:17 PM 30.5194 -95.1186 28° Northeast 349 402 15,700 2,226 Climbing Houston Center
Wed 02:49:19 PM 30.6100 -95.0631 28° Northeast 364 419 17,800 2,129 Climbing Houston Center
Wed 02:50:21 PM 30.7050 -95.0031 29° Northeast 384 442 20,100 2,371 Climbing Houston Center
Wed 02:51:23 PM 30.8228 -94.9297 28° Northeast 397 457 22,700 2,081 Climbing Houston Center
Wed 02:52:25 PM 30.9222 -94.8675 28° Northeast 404 465 24,400 1,603 Climbing Houston Center
Wed 02:53:19 PM 31.0050 -94.8153 28° Northeast 394 453 25,800 1,421 Climbing Fort Worth Center
Wed 02:54:19 PM 31.1058 -94.7519 28° Northeast 399 459 27,100 1,250 Climbing Fort Worth Center
Wed 02:55:19 PM 31.2192 -94.6806 28° Northeast 423 487 28,300 950 Climbing Fort Worth Center
Wed 02:56:19 PM 31.3242 -94.6047 32° Northeast 434 499 29,000 350 Climbing Fort Worth Center
Wed 02:57:19 PM 31.4517 -94.5181 30° Northeast 457 526 29,000  Level Fort Worth Center
Wed 02:58:19 PM 31.5728 -94.4339 31° Northeast 483 556 29,000  Level Fort Worth Center
Wed 02:59:19 PM 31.6939 -94.3492 31° Northeast 494 568 29,000  Level Fort Worth Center
Wed 03:00:19 PM 31.8169 -94.2644 30° Northeast 499 574 29,000 650 Level Fort Worth Center
Wed 03:01:19 PM 31.9381 -94.1794 31° Northeast 504 580 30,300 1,000 Climbing Fort Worth Center
Wed 03:02:19 PM 32.0550 -94.0969 31° Northeast 492 566 31,000 350 Climbing Fort Worth Center
Wed 03:03:19 PM 32.1717 -94.0142 31° Northeast 485 558 31,000  Level Fort Worth Center
Wed 03:04:19 PM 32.2822 -93.9314 32° Northeast 491 565 31,000  Level Fort Worth Center
Wed 03:05:19 PM 32.4031 -93.8456 31° Northeast 497 572 31,000  Level Fort Worth Center
Wed 03:06:19 PM 32.5217 -93.7597 31° Northeast 502 578 31,000  Level Fort Worth Center
Wed 03:07:19 PM 32.6422 -93.6758 30° Northeast 502 578 31,000  Level Fort Worth Center
Wed 03:08:19 PM 32.7647 -93.5892 31° Northeast 502 578 31,000  Level Fort Worth Center
Wed 03:09:19 PM 32.8833 -93.5025 32° Northeast 502 578 31,000  Level Fort Worth Center
Wed 03:10:19 PM 33.0181 -93.4050 31° Northeast 508 585 31,000  Level Fort Worth Center
Wed 03:11:19 PM 33.1383 -93.3203 31° Northeast 508 585 31,000  Level Fort Worth Center
Wed 03:12:19 PM 33.2564 -93.2328 32° Northeast 503 579 31,000  Level Fort Worth Center
Wed 03:13:57 PM 33.4542 -93.0911 31° Northeast 533 613 31,000  Level Memphis Center
Wed 03:14:57 PM 33.5750 -93.0025 31° Northeast 520 598 31,000  Level Memphis Center
Wed 03:15:57 PM 33.6958 -92.9164 31° Northeast 507 583 31,000  Level Memphis Center
Wed 03:16:57 PM 33.8144 -92.8272 32° Northeast 501 577 31,000  Level Memphis Center
Wed 03:17:57 PM 33.9394 -92.7383 31° Northeast 506 582 31,000  Level Memphis Center
Wed 03:18:57 PM 34.0578 -92.6461 33° Northeast 506 582 31,000  Level Memphis Center
Wed 03:19:57 PM 34.1783 -92.5567 32° Northeast 501 577 31,000  Level Memphis Center
Wed 03:20:57 PM 34.3011 -92.4642 32° Northeast 501 577 31,000  Level Memphis Center
Wed 03:21:57 PM 34.4236 -92.3714 32° Northeast 501 577 31,000  Level Memphis Center
Wed 03:22:57 PM 34.5439 -92.2811 32° Northeast 507 583 31,000  Level Memphis Center
Wed 03:23:57 PM 34.6644 -92.1853 33° Northeast 507 583 31,000  Level Memphis Center
Wed 03:24:57 PM 34.7725 -92.0611 43° Northeast 512 589 31,000  Level Memphis Center
Wed 03:25:57 PM 34.8764 -91.9292 46° Northeast 517 595 31,000  Level Memphis Center
Wed 03:26:57 PM 34.9783 -91.7992 46° Northeast 528 608 31,000  Level Memphis Center
Wed 03:27:57 PM 35.0797 -91.6664 47° Northeast 533 613 31,000  Level Memphis Center
Wed 03:28:57 PM 35.1792 -91.5358 47° Northeast 533 613 31,000  Level Memphis Center
Wed 03:29:57 PM 35.2825 -91.4025 46° Northeast 533 613 31,000  Level Memphis Center
Wed 03:30:57 PM 35.3878 -91.2661 47° Northeast 533 613 31,000  Level Memphis Center
Wed 03:31:57 PM 35.4806 -91.1475 46° Northeast 533 613 31,000  Level Memphis Center
Wed 03:32:57 PM 35.5814 -91.0131 47° Northeast 538 619 31,000  Level Memphis Center
Wed 03:33:57 PM 35.6864 -90.8758 47° Northeast 538 619 31,000  Level Memphis Center
Wed 03:34:57 PM 35.7806 -90.7408 49° Northeast 528 608 31,000  Level Memphis Center
Wed 03:35:57 PM 35.8853 -90.6056 46° Northeast 528 608 31,000  Level Memphis Center
Wed 03:36:57 PM 35.9897 -90.4672 47° Northeast 534 615 31,000  Level Memphis Center
Wed 03:37:57 PM 36.0919 -90.3286 48° Northeast 539 620 31,000  Level Memphis Center
Wed 03:38:57 PM 36.1939 -90.1925 47° Northeast 544 626 31,000  Level Memphis Center
Wed 03:39:57 PM 36.2978 -90.0531 47° Northeast 544 626 31,000  Level Memphis Center
Wed 03:40:57 PM 36.4017 -89.9136 47° Northeast 544 626 31,000  Level Memphis Center
Wed 03:41:57 PM 36.5053 -89.7736 47° Northeast 544 626 31,000  Level Memphis Center
Wed 03:42:57 PM 36.6089 -89.6331 47° Northeast 544 626 31,000  Level Memphis Center
Wed 03:43:57 PM 36.7244 -89.4767 47° Northeast 544 626 31,000  Level Memphis Center
Wed 03:44:57 PM 36.8275 -89.3331 48° Northeast 544 626 31,000  Level Memphis Center
Wed 03:45:57 PM 36.9325 -89.1864 48° Northeast 544 626 31,000  Level Memphis Center
Wed 03:46:57 PM 37.0353 -89.0444 48° Northeast 544 626 31,000  Level Memphis Center
Wed 03:47:57 PM 37.1378 -88.8972 49° Northeast 544 626 31,000  Level Memphis Center
Wed 03:48:57 PM 37.2444 -88.7519 47° Northeast 544 626 31,000  Level Memphis Center
Wed 03:49:57 PM 37.3486 -88.6064 48° Northeast 544 626 31,000  Level Memphis Center
Wed 03:52:29 PM 37.6047 -88.2275 49° Northeast 570 656 31,000  Level Indianapolis Center
Wed 03:53:31 PM 37.7033 -88.0606 53° Northeast 581 669 31,000  Level Indianapolis Center
Wed 03:54:33 PM 37.7778 -87.8811 62° Northeast 586 674 31,000  Level Indianapolis Center
Wed 03:55:35 PM 37.8525 -87.6981 63° Northeast 585 673 31,000  Level Indianapolis Center
Wed 03:56:38 PM 37.9278 -87.5150 62° Northeast 587 676 31,000  Level Indianapolis Center
Wed 03:57:40 PM 38.0011 -87.3306 63° Northeast 588 677 31,000  Level Indianapolis Center
Wed 03:58:42 PM 38.0894 -87.1108 63° Northeast 587 676 31,000  Level Indianapolis Center
Wed 03:59:44 PM 38.1625 -86.9278 63° Northeast 592 681 31,000  Level Indianapolis Center
Wed 04:00:46 PM 38.2356 -86.7444 63° Northeast 592 681 31,000  Level Indianapolis Center
Wed 04:01:48 PM 38.3089 -86.5583 63° Northeast 592 681 31,000  Level Indianapolis Center
Wed 04:02:50 PM 38.3825 -86.3697 63° Northeast 594 684 31,000  Level Indianapolis Center
Wed 04:03:52 PM 38.4714 -86.1422 63° Northeast 596 686 31,000  Level Indianapolis Center
Wed 04:04:54 PM 38.5447 -85.9525 64° Northeast 596 686 31,000  Level Indianapolis Center
Wed 04:06:00 PM 38.5900 -85.7858 65° Northeast  Level FlightAware Approximate
Wed 04:06:58 PM 38.6936 -85.5633 65° Northeast 604 695 31,000  Level Indianapolis Center
Wed 04:08:00 PM 38.7644 -85.3739 64° Northeast 592 681 29,200 -1,887 Descending Indianapolis Center
Wed 04:09:02 PM 38.8372 -85.1825 64° Northeast 595 685 27,100 -2,226 Descending Indianapolis Center
Wed 04:10:04 PM 38.9197 -84.9608 64° Northeast 588 677 24,600 -1,500 Descending Indianapolis Center
Wed 04:11:06 PM 38.9833 -84.7858 65° Northeast 564 649 24,000 -290 Descending Indianapolis Center
Wed 04:12:08 PM 39.0636 -84.6150 59° Northeast 554 638 24,000 -581 Level Indianapolis Center
Wed 04:13:10 PM 39.1536 -84.4533 54° Northeast 552 635 22,800 -1,536 Descending Indianapolis Center
Wed 04:14:13 PM 39.2397 -84.2958 55° Northeast 537 618 20,800 -1,824 Descending Indianapolis Center
Wed 04:15:15 PM 39.3289 -84.1078 58° Northeast 526 605 19,000 -919 Descending Indianapolis Center
Wed 04:16:17 PM 39.3939 -83.9375 64° Northeast 524 603 18,900 -1,306 Descending Indianapolis Center
Wed 04:17:19 PM 39.4575 -83.7703 64° Northeast 518 596 16,300 -2,226 Descending Indianapolis Center
Wed 04:18:21 PM 39.5150 -83.6186 64° Northeast 471 542 14,300 -2,143 Descending Indianapolis Center
Wed 04:19:11 PM 39.5639 -83.4933 63° Northeast 405 466 12,300 -2,250 Descending Indianapolis Center
Wed 04:20:05 PM 39.6114 -83.3856 60° Northeast 402 463 10,400 -1,865 Descending Indianapolis Center
Wed 04:20:25 PM 39.6250 -83.3631 52° Northeast 401 461 10,000 -393 Descending Indianapolis Center
Wed 04:21:06 PM 39.6822 -83.2722 51° Northeast 368 423 10,000 -484 Level Indianapolis Center
Wed 04:21:27 PM 39.7000 -83.2400 54° Northeast 376 433 9,500 -1,377 Descending Indianapolis Center
Wed 04:22:07 PM 39.7394 -83.1731 53° Northeast 335 386 8,600 -1,355 Descending Indianapolis Center
Wed 04:22:29 PM 39.7564 -83.1464 50° Northeast 337 388 8,100 -1,600 Descending Indianapolis Center
Wed 04:23:07 PM 39.7942 -83.0819 53° Northeast 310 357 7,000 -1,548 Descending Indianapolis Center
Wed 04:23:31 PM 39.8122 -83.0547 49° Northeast 325 374 6,500 -984 Descending Indianapolis Center
Wed 04:24:08 PM 39.8483 -82.9931 53° Northeast 306 352 6,000 -581 Descending Indianapolis Center
Wed 04:24:33 PM 39.8644 -82.9675 51° Northeast 312 359 5,900  Descending Indianapolis Center
Wed 04:25:09 PM 39.9000 -82.9094 51° Northeast 304 350 6,000  Climbing Indianapolis Center
Wed 04:25:35 PM 39.9106 -82.8764 67° East 311 358 5,900 -98 Descending Indianapolis Center
Wed 04:26:10 PM 39.9089 -82.8072 92° East 282 325 5,900 -581 Level Indianapolis Center
Wed 04:26:37 PM 39.9056 -82.7586 95° East 275 316 5,300 -1,082 Descending Indianapolis Center
Wed 04:27:11 PM 39.9031 -82.7058 94° East 252 290 4,800 -1,161 Descending Indianapolis Center
Wed 04:27:39 PM 39.9008 -82.6678 94° East 256 295 4,100 -787 Descending Indianapolis Center
Wed 04:28:12 PM 39.8983 -82.6211 94° East 251 289 4,000 -194 Descending Indianapolis Center
Wed 04:28:41 PM 39.9169 -82.5939 48° Northeast 238 274 3,900 -98 Descending Indianapolis Center
Wed 04:29:13 PM 39.9483 -82.5886 North 212 244 3,900 -290 Level Indianapolis Center
Wed 04:29:43 PM 39.9731 -82.5986 343° North 218 251 3,600 -800 Descending Indianapolis Center
Wed 04:30:13 PM 39.9856 -82.6308 297° West 190 219 3,100 -667 Descending Indianapolis Center
Wed 04:30:46 PM 39.9883 -82.6572 278° West 187 215 2,900 -98 Descending Indianapolis Center
Wed 04:31:14 PM 39.9903 -82.6856 275° West 145 167 3,000  Climbing Indianapolis Center
Wed 04:31:48 PM 39.9917 -82.7117 274° West 163 188 2,900 -98 Descending Indianapolis Center
Wed 04:32:15 PM 39.9947 -82.7433 277° West 159 183 2,900 -387 Level Indianapolis Center
Wed 04:32:50 PM 39.9950 -82.7653 271° West 153 176 2,500 -716 Descending Indianapolis Center
Wed 04:33:22 PM 39.9975 -82.7981 276° West 136 157 2,100 -750 Descending Indianapolis Center

Login

Don't have an account? Register now (free) for customized features, flight alerts, and more!